Orbital elements of BREEZE-M DEB
| Launched | 27 February 2006 |
| Flight ended | – |
| Launch site | Tyuratam Missile and Space Center, Kazakhstan (Also known as Baikonur Cosmodrome) |
| Owner | Commonwealth of Independent States (former USSR) |
| NORAD ID | 34241 |
| Date fetched |
Epoch osculation |
Inc. [°] |
Ecc. | RA asc node [hr] |
Arg Peri. [°] |
Mean anom [°] |
Mean motion [rev/day] |
Abs. mag |
| Date fetched |
Epoch osculation |
Inc. [°] |
Ecc. | RA asc node [hr] |
Arg Peri. [°] |
Mean anom [°] |
Mean motion [rev/day] |
Abs. mag |
| 2026 May 04 17:57 | 2026 Apr 27 02:51:20 | 51.7616 | 0.49032 | 10.1632 | 359.7630 | 11.8091 | 5.41856 | – |
| 2026 May 03 17:57 | 2026 Apr 27 02:51:20 | 51.7616 | 0.49032 | 10.1632 | 359.7630 | 11.8091 | 5.41856 | – |
| 2026 May 02 17:57 | 2026 Apr 27 02:51:20 | 51.7616 | 0.49032 | 10.1632 | 359.7630 | 11.8091 | 5.41856 | – |
| 2026 May 01 17:56 | 2026 Apr 27 02:51:20 | 51.7616 | 0.49032 | 10.1632 | 359.7630 | 11.8091 | 5.41856 | – |
| 2026 Apr 30 17:56 | 2026 Apr 27 02:51:20 | 51.7616 | 0.49032 | 10.1632 | 359.7630 | 11.8091 | 5.41856 | – |
| 2026 Apr 29 17:57 | 2026 Apr 22 03:16:41 | 51.7607 | 0.49036 | 10.4083 | 357.0335 | 11.8091 | 5.41856 | – |
| 2026 Apr 28 17:56 | 2026 Apr 22 03:16:41 | 51.7607 | 0.49036 | 10.4083 | 357.0335 | 11.8091 | 5.41856 | – |
| 2026 Apr 27 17:58 | 2026 Apr 22 03:16:41 | 51.7607 | 0.49036 | 10.4083 | 357.0335 | 11.8091 | 5.41856 | – |
| 2026 Apr 26 17:58 | 2026 Apr 22 03:16:41 | 51.7607 | 0.49036 | 10.4083 | 357.0335 | 11.8091 | 5.41856 | – |
| 2026 Apr 25 17:58 | 2026 Apr 22 03:16:41 | 51.7607 | 0.49036 | 10.4083 | 357.0335 | 11.8091 | 5.41856 | – |
| 2026 Apr 24 17:59 | 2026 Apr 22 03:16:41 | 51.7607 | 0.49036 | 10.4083 | 357.0335 | 11.8091 | 5.41856 | – |
| 2026 Apr 23 17:57 | 2026 Apr 19 04:24:50 | 51.7595 | 0.49038 | 10.5536 | 355.4210 | 11.8091 | 5.41856 | – |
| 2026 Apr 22 17:57 | 2026 Apr 19 04:24:50 | 51.7595 | 0.49038 | 10.5536 | 355.4210 | 11.8091 | 5.41856 | – |
| 2026 Apr 21 17:57 | 2026 Apr 19 04:24:50 | 51.7595 | 0.49038 | 10.5536 | 355.4210 | 11.8091 | 5.41856 | – |
| 2026 Apr 20 17:57 | 2026 Apr 19 04:24:50 | 51.7595 | 0.49038 | 10.5536 | 355.4210 | 11.8091 | 5.41856 | – |
| 2026 Apr 19 17:58 | 2026 Apr 19 04:24:50 | 51.7595 | 0.49038 | 10.5536 | 355.4210 | 11.8091 | 5.41856 | – |
| 2026 Apr 18 17:56 | 2026 Apr 12 04:03:55 | 51.7525 | 0.49043 | 10.8985 | 351.5981 | 11.8091 | 5.41856 | – |
| 2026 Apr 16 17:57 | 2026 Apr 12 04:03:55 | 51.7525 | 0.49043 | 10.8985 | 351.5981 | 11.8091 | 5.41856 | – |
| 2026 Apr 14 17:57 | 2026 Apr 12 04:03:55 | 51.7525 | 0.49043 | 10.8985 | 351.5981 | 11.8091 | 5.41856 | – |
| 2026 Apr 13 17:57 | 2026 Apr 12 04:03:55 | 51.7525 | 0.49043 | 10.8985 | 351.5981 | 11.8091 | 5.41856 | – |
| 2026 Apr 12 17:57 | 2026 Apr 07 04:29:24 | 51.7510 | 0.49048 | 11.1436 | 348.8798 | 11.8091 | 5.41856 | – |
| 2026 Apr 11 17:57 | 2026 Apr 07 04:29:24 | 51.7510 | 0.49048 | 11.1436 | 348.8798 | 11.8091 | 5.41856 | – |
| 2026 Apr 10 17:58 | 2026 Apr 07 04:29:24 | 51.7510 | 0.49048 | 11.1436 | 348.8798 | 11.8091 | 5.41856 | – |
| 2026 Apr 09 18:01 | 2026 Apr 07 04:29:24 | 51.7510 | 0.49048 | 11.1436 | 348.8798 | 11.8091 | 5.41856 | – |
| 2026 Apr 08 17:57 | 2026 Apr 07 04:29:24 | 51.7510 | 0.49048 | 11.1436 | 348.8798 | 11.8091 | 5.41856 | – |
| 2026 Apr 07 17:57 | 2026 Mar 30 06:04:45 | 51.7495 | 0.49055 | 11.5340 | 344.5565 | 11.8091 | 5.41856 | – |